RKSO/OSN METAR and TAF weather

Enter ICAO airport designator
Station Type Date Time Source
RKSO METAR 2020/09/18 21:58 UTC NOAA

RKSO 182158Z 05004KT 5SM BR SCT040 BKN100 18/17 A2998 RMK AO2A SLP121 T01770169


Station Type Date Time Source
RKSO Decoded METAR 2020/09/18 21:58 UTC NOAA

Osan Ab, Korea, South (RKSO) 37-06N 127-02E 12M
Sep 18, 2020 - 05:58 PM EDT / 2020.09.18 2158 UTC
Wind: from the NE (050 degrees) at 5 MPH (4 KT):0
Visibility: 5 mile(s):0
Sky conditions: mostly cloudy
Weather: mist
Temperature: 63.9 F (17.7 C)
Dew Point: 62.4 F (16.9 C)
Relative Humidity: 95%
Pressure (altimeter): 29.98 in. Hg (1015 hPa)
ob: RKSO 182158Z 05004KT 5SM BR SCT040 BKN100 18/17 A2998 RMK AO2A SLP121 T01770169
cycle: 22

Station Type Date Time Source
RKSO TAF 2020/09/18 21:54 UTC NOAA

TAF TAF
AMD RKSO 182145Z 1821/1923 VRB06KT 8000 BR FEW015 SCT040 SCT100 QNH2995INS
TEMPO 1821/1824 8000 -TSRA BKN025CB
BECMG 1900/1901 VRB06KT 9999 NSW FEW055 QNH2993INS
BECMG 1902/1903 27015G20KT 9999 SCT030 QNH2991INS
BECMG 1908/1909 28009KT 9999 FEW040 QNH2992INS TX24/1905Z TN14/1917Z

Example: see airport list